createdAt,value
2023-05-10T00:02:14.960Z,100090.63
2023-05-10T00:04:42.693Z,100091.41
2023-05-10T00:07:11.380Z,100087.06
2023-05-10T00:09:38.918Z,100090.81
2023-05-10T00:12:06.894Z,100085.13
2023-05-10T00:14:34.562Z,100084.88
2023-05-10T00:17:02.442Z,100085.47
2023-05-10T00:19:30.167Z,100081.59
2023-05-10T00:21:57.849Z,100081.53
2023-05-10T00:24:26.183Z,100088.25
2023-05-10T00:26:53.702Z,100081.53
2023-05-10T00:29:21.498Z,100080.38
2023-05-10T00:31:49.310Z,100079.44
2023-05-10T00:34:16.966Z,100074.50
2023-05-10T00:36:44.551Z,100081.16
2023-05-10T00:39:12.280Z,100075.19
2023-05-10T00:41:40.187Z,100077.22
2023-05-10T00:44:08.391Z,100085.38
2023-05-10T00:46:37.201Z,100082.47
2023-05-10T00:49:05.421Z,100073.50
2023-05-10T00:51:33.863Z,100066.03
2023-05-10T00:54:01.675Z,100062.84
2023-05-10T00:56:30.779Z,100070.41
2023-05-10T00:58:58.880Z,100071.13
2023-05-10T01:01:26.868Z,100072.88
2023-05-10T01:03:55.526Z,100073.16
2023-05-10T01:06:23.312Z,100069.50
2023-05-10T01:08:51.737Z,100072.75
2023-05-10T01:11:19.437Z,100071.22
2023-05-10T01:13:57.016Z,100070.72
2023-05-10T01:16:26.432Z,100065.75
2023-05-10T01:18:55.005Z,100058.09
2023-05-10T01:22:02.812Z,100058.47
2023-05-10T01:25:05.130Z,100051.88
2023-05-10T01:28:00.129Z,100053.84
2023-05-10T01:30:52.314Z,100061.78
2023-05-10T01:33:37.224Z,100058.31
2023-05-10T01:36:19.157Z,100059.00
2023-05-10T01:39:11.867Z,100054.88
2023-05-10T01:41:45.064Z,100059.34
2023-05-10T01:44:25.863Z,100059.94
2023-05-10T01:47:18.570Z,100053.75
2023-05-10T01:49:53.452Z,100059.19
2023-05-10T01:52:28.327Z,100059.09
2023-05-10T01:55:08.857Z,100065.13
2023-05-10T01:57:40.725Z,100065.66
2023-05-10T02:00:10.556Z,100063.94
2023-05-10T02:02:51.557Z,100070.44
2023-05-10T02:05:21.689Z,100077.91
2023-05-10T02:07:50.490Z,100068.00
2023-05-10T02:10:22.251Z,100063.03
2023-05-10T02:12:51.893Z,100069.16
2023-05-10T02:15:25.833Z,100062.19
2023-05-10T02:17:56.805Z,100065.13
2023-05-10T02:20:28.973Z,100057.34
2023-05-10T02:22:58.848Z,100058.69
2023-05-10T02:25:27.861Z,100061.41
2023-05-10T02:27:58.073Z,100057.81
2023-05-10T02:30:30.401Z,100059.50
2023-05-10T02:35:29.333Z,100066.28
2023-05-10T02:38:00.008Z,100054.72
2023-05-10T02:40:31.622Z,100054.25
2023-05-10T02:43:01.230Z,100056.97
2023-05-10T02:45:33.118Z,100064.53
2023-05-10T02:48:01.706Z,100052.31
2023-05-10T02:50:35.228Z,100067.09
2023-05-10T02:53:13.233Z,100062.22
2023-05-10T02:55:44.043Z,100064.38
2023-05-10T02:58:11.805Z,100059.69
2023-05-10T03:00:39.539Z,100064.63
2023-05-10T03:03:07.915Z,100060.06
2023-05-10T03:05:35.616Z,100058.91
2023-05-10T03:08:05.816Z,100057.13
2023-05-10T03:10:40.390Z,100065.72
2023-05-10T03:13:14.349Z,100059.28
2023-05-10T03:16:13.651Z,100070.75
2023-05-10T03:18:52.136Z,100071.72
2023-05-10T03:21:22.960Z,100072.09
2023-05-10T03:24:13.058Z,100072.88
2023-05-10T03:26:42.648Z,100078.81
2023-05-10T03:29:16.813Z,100073.88
2023-05-10T03:31:44.966Z,100081.66
2023-05-10T03:34:12.955Z,100079.50
2023-05-10T03:36:40.504Z,100075.59
2023-05-10T03:39:08.055Z,100080.91
2023-05-10T03:41:35.717Z,100078.28
2023-05-10T03:44:03.446Z,100081.28
2023-05-10T03:46:31.201Z,100078.97
2023-05-10T03:48:59.305Z,100081.88
2023-05-10T03:51:29.285Z,100081.88
2023-05-10T03:53:56.869Z,100081.88
2023-05-10T03:56:24.796Z,100081.38
2023-05-10T03:58:52.719Z,100088.00
2023-05-10T04:01:20.312Z,100086.63
2023-05-10T04:03:48.198Z,100097.56
2023-05-10T04:06:16.253Z,100102.34
2023-05-10T04:08:43.862Z,100106.03
2023-05-10T04:11:14.787Z,100102.63
2023-05-10T04:13:42.468Z,100109.22
2023-05-10T04:16:10.327Z,100108.31
2023-05-10T04:18:37.984Z,100107.41
2023-05-10T04:21:06.509Z,100113.81
2023-05-10T04:23:34.162Z,100113.09
2023-05-10T04:26:03.044Z,100098.09
2023-05-10T04:28:30.719Z,100110.19
2023-05-10T04:31:11.014Z,100103.25
2023-05-10T04:33:39.255Z,100103.41
2023-05-10T04:36:07.583Z,100105.56
2023-05-10T04:38:35.340Z,100109.91
2023-05-10T04:41:10.512Z,100104.63
2023-05-10T04:43:39.345Z,100106.94
2023-05-10T04:46:08.576Z,100104.63
2023-05-10T04:48:36.263Z,100115.25
2023-05-10T04:51:05.105Z,100111.88
2023-05-10T04:53:33.158Z,100113.91
2023-05-10T04:56:00.741Z,100116.69
2023-05-10T04:58:28.304Z,100110.50
2023-05-10T05:00:55.933Z,100115.19
2023-05-10T05:03:23.609Z,100116.28
2023-05-10T05:05:51.283Z,100114.75
2023-05-10T05:08:18.813Z,100123.00
2023-05-10T05:10:46.436Z,100123.44
2023-05-10T05:13:14.672Z,100128.44
2023-05-10T05:15:42.346Z,100123.31
2023-05-10T05:18:09.897Z,100119.56
2023-05-10T05:20:37.471Z,100121.31
2023-05-10T05:23:05.079Z,100121.66
2023-05-10T05:25:35.813Z,100120.81
2023-05-10T05:28:03.418Z,100125.03
2023-05-10T05:30:30.982Z,100115.34
2023-05-10T05:32:58.539Z,100121.44
2023-05-10T05:35:26.390Z,100118.47
2023-05-10T05:37:53.876Z,100115.38
2023-05-10T05:40:21.568Z,100117.41
2023-05-10T05:42:49.218Z,100114.13
2023-05-10T05:45:17.084Z,100116.16
2023-05-10T05:47:44.964Z,100121.56
2023-05-10T05:50:12.859Z,100118.66
2023-05-10T05:52:40.610Z,100130.84
2023-05-10T05:55:08.475Z,100126.94
2023-05-10T05:57:36.084Z,100131.75
2023-05-10T06:00:04.195Z,100135.84
2023-05-10T06:02:43.007Z,100139.25
2023-05-10T06:05:10.796Z,100144.72
2023-05-10T06:07:38.397Z,100150.84
2023-05-10T06:10:06.883Z,100151.03
2023-05-10T06:12:34.434Z,100145.78
2023-05-10T06:15:02.044Z,100144.38
2023-05-10T06:17:29.856Z,100142.38
2023-05-10T06:19:58.099Z,100152.94
2023-05-10T06:22:25.684Z,100153.13
2023-05-10T06:24:53.138Z,100150.66
2023-05-10T06:27:20.757Z,100151.28
2023-05-10T06:29:49.249Z,100160.13
2023-05-10T06:32:18.454Z,100163.06
2023-05-10T06:34:46.096Z,100161.81
2023-05-10T06:37:13.845Z,100157.78
2023-05-10T06:39:41.458Z,100151.06
2023-05-10T06:42:08.985Z,100164.72
2023-05-10T06:44:36.634Z,100159.00
2023-05-10T06:47:04.227Z,100159.75
2023-05-10T06:49:31.951Z,100153.03
2023-05-10T06:51:59.532Z,100162.88
2023-05-10T06:54:27.070Z,100153.91
2023-05-10T06:56:55.042Z,100149.72
2023-05-10T06:59:23.677Z,100154.06
2023-05-10T07:01:51.512Z,100154.22
2023-05-10T07:04:19.155Z,100156.84
2023-05-10T07:06:47.461Z,100150.94
2023-05-10T07:09:15.133Z,100147.41
2023-05-10T07:11:42.661Z,100150.66
2023-05-10T07:14:10.696Z,100153.28
2023-05-10T07:16:38.319Z,100150.94
2023-05-10T07:19:07.648Z,100145.22
2023-05-10T07:21:36.631Z,100155.16
2023-05-10T07:24:04.596Z,100157.00
2023-05-10T07:26:32.158Z,100162.88
2023-05-10T07:28:59.764Z,100166.88
2023-05-10T07:31:27.334Z,100165.97
2023-05-10T07:33:55.118Z,100172.56
2023-05-10T07:36:22.612Z,100164.19
2023-05-10T07:38:50.635Z,100169.19
2023-05-10T07:41:18.436Z,100162.09
2023-05-10T07:43:45.946Z,100169.16
2023-05-10T07:46:14.530Z,100162.19
2023-05-10T07:48:42.470Z,100170.72
2023-05-10T07:51:10.530Z,100168.13
2023-05-10T07:53:38.501Z,100172.88
2023-05-10T07:56:30.651Z,100170.94
2023-05-10T07:58:58.906Z,100176.34
2023-05-10T08:01:27.749Z,100178.59
2023-05-10T08:03:55.993Z,100175.66
2023-05-10T08:06:23.623Z,100181.88
2023-05-10T08:08:51.781Z,100182.63
2023-05-10T08:11:21.558Z,100178.56
2023-05-10T08:13:50.606Z,100182.44
2023-05-10T08:16:18.985Z,100179.63
2023-05-10T08:18:48.321Z,100182.53
2023-05-10T08:21:16.958Z,100183.19
2023-05-10T08:23:47.304Z,100196.16
2023-05-10T08:26:14.936Z,100184.31
2023-05-10T08:28:42.494Z,100188.06
2023-05-10T08:31:10.185Z,100188.53
2023-05-10T08:33:37.972Z,100187.19
2023-05-10T08:36:06.188Z,100186.34
2023-05-10T08:38:33.807Z,100176.22
2023-05-10T08:41:03.826Z,100177.81
2023-05-10T08:43:32.265Z,100177.31
2023-05-10T08:46:04.138Z,100179.56
2023-05-10T08:48:32.277Z,100182.47
2023-05-10T08:51:03.060Z,100180.88
2023-05-10T08:53:32.866Z,100184.59
2023-05-10T08:56:02.805Z,100179.13
2023-05-10T08:58:30.713Z,100181.38
2023-05-10T09:00:59.684Z,100188.31
2023-05-10T09:03:27.543Z,100189.28
2023-05-10T09:05:56.918Z,100191.22
2023-05-10T09:08:28.428Z,100185.47
2023-05-10T09:10:59.145Z,100194.47
2023-05-10T09:13:27.234Z,100181.75
2023-05-10T09:15:54.924Z,100177.19
2023-05-10T09:18:22.561Z,100188.09
2023-05-10T09:20:51.028Z,100184.00
2023-05-10T09:23:18.565Z,100180.34
2023-05-10T09:25:46.180Z,100167.94
2023-05-10T09:28:13.971Z,100166.88
2023-05-10T09:30:41.559Z,100172.41
2023-05-10T09:33:09.034Z,100168.31
2023-05-10T09:35:37.145Z,100166.09
2023-05-10T09:38:06.510Z,100163.22
2023-05-10T09:40:34.005Z,100163.78
2023-05-10T09:43:11.855Z,100157.78
2023-05-10T09:45:39.569Z,100146.06
2023-05-10T09:48:07.782Z,100148.78
2023-05-10T09:50:35.619Z,100150.34
2023-05-10T09:53:05.209Z,100143.28
2023-05-10T09:55:46.006Z,100154.91
2023-05-10T09:58:17.345Z,100149.19
2023-05-10T10:00:48.884Z,100144.06
2023-05-10T10:03:19.790Z,100139.63
2023-05-10T10:05:49.930Z,100136.69
2023-05-10T10:08:18.229Z,100128.53
2023-05-10T10:10:47.125Z,100124.03
2023-05-10T10:13:15.185Z,100123.94
2023-05-10T10:15:45.710Z,100115.13
2023-05-10T10:18:18.517Z,100130.06
2023-05-10T10:20:47.164Z,100108.00
2023-05-10T10:23:16.666Z,100123.78
2023-05-10T10:25:48.819Z,100119.03
2023-05-10T10:28:42.543Z,100110.38
2023-05-10T10:31:43.248Z,100122.59
2023-05-10T10:34:18.344Z,100112.47
2023-05-10T10:36:48.940Z,100111.72
2023-05-10T10:39:17.049Z,100114.97
2023-05-10T10:41:58.599Z,100112.50
2023-05-10T10:44:37.731Z,100115.44
2023-05-10T10:47:24.126Z,100116.31
2023-05-10T10:50:07.016Z,100116.09
2023-05-10T10:52:39.327Z,100120.19
2023-05-10T10:55:12.780Z,100117.97
2023-05-10T10:57:53.160Z,100118.53
2023-05-10T11:00:22.215Z,100122.50
2023-05-10T11:02:54.970Z,100117.41
2023-05-10T11:05:33.800Z,100118.09
2023-05-10T11:08:07.603Z,100108.78
2023-05-10T11:10:36.161Z,100113.13
2023-05-10T11:13:05.080Z,100112.91
2023-05-10T11:15:35.052Z,100116.53
2023-05-10T11:18:20.344Z,100104.34
2023-05-10T11:21:04.377Z,100109.38
2023-05-10T11:23:34.153Z,100099.41
2023-05-10T11:26:02.578Z,100098.19
2023-05-10T11:28:30.102Z,100099.16
2023-05-10T11:30:58.475Z,100092.19
2023-05-10T11:33:26.024Z,100093.63
2023-05-10T11:35:53.490Z,100089.66
2023-05-10T11:38:21.012Z,100089.72
2023-05-10T11:40:48.550Z,100094.16
2023-05-10T11:43:16.255Z,100084.56
2023-05-10T11:45:46.988Z,100088.03
2023-05-10T11:48:14.535Z,100084.31
2023-05-10T11:50:42.108Z,100087.53
2023-05-10T11:53:09.602Z,100088.75
2023-05-10T11:55:37.106Z,100081.50
2023-05-10T11:58:04.665Z,100084.53
2023-05-10T12:00:33.489Z,100081.78
2023-05-10T12:03:02.969Z,100073.00
2023-05-10T12:05:35.136Z,100073.03
2023-05-10T12:08:16.416Z,100073.41
2023-05-10T12:10:44.873Z,100068.78
2023-05-10T12:13:16.443Z,100063.00
2023-05-10T12:15:44.819Z,100060.44
2023-05-10T12:18:15.020Z,100057.44
2023-05-10T12:20:43.564Z,100060.09
2023-05-10T12:23:12.318Z,100059.13
2023-05-10T12:25:40.741Z,100052.53
2023-05-10T12:28:10.775Z,100061.22
2023-05-10T12:30:39.736Z,100067.94
2023-05-10T12:33:19.043Z,100051.56
2023-05-10T12:35:52.900Z,100045.44
2023-05-10T12:38:44.225Z,100044.97
2023-05-10T12:41:15.542Z,100046.09
2023-05-10T12:43:43.499Z,100045.72
2023-05-10T12:46:14.140Z,100043.03
2023-05-10T12:48:44.580Z,100043.22
2023-05-10T12:51:18.276Z,100040.16
2023-05-10T12:53:49.395Z,100035.84
2023-05-10T12:56:17.154Z,100029.38
2023-05-10T12:58:49.220Z,100018.47
2023-05-10T13:01:17.141Z,100020.94
2023-05-10T13:03:44.890Z,100012.19
2023-05-10T13:06:14.417Z,100010.91
2023-05-10T13:08:41.832Z,100010.72
2023-05-10T13:11:09.317Z,100004.47
2023-05-10T13:13:37.106Z,100000.00
2023-05-10T13:16:04.946Z,99998.34
2023-05-10T13:18:32.544Z,99994.63
2023-05-10T13:21:00.275Z,99982.03
2023-05-10T13:23:27.782Z,99985.16
2023-05-10T13:25:55.251Z,99975.66
2023-05-10T13:28:22.822Z,99978.72
2023-05-10T13:30:50.238Z,99974.41
2023-05-10T13:33:17.765Z,99978.44
2023-05-10T13:35:46.267Z,99975.38
2023-05-10T13:38:15.211Z,99970.81
2023-05-10T13:40:42.787Z,99966.47
2023-05-10T13:43:10.211Z,99969.50
2023-05-10T13:45:37.855Z,99973.84
2023-05-10T13:48:05.800Z,99962.91
2023-05-10T13:50:33.285Z,99973.00
2023-05-10T13:53:01.324Z,99970.28
2023-05-10T13:55:29.812Z,99969.53
2023-05-10T13:57:57.312Z,99967.34
2023-05-10T14:00:24.946Z,99965.16
2023-05-10T14:02:52.760Z,99954.88
2023-05-10T14:05:25.398Z,99960.06
2023-05-10T14:07:54.990Z,99955.47
2023-05-10T14:10:22.718Z,99954.19
2023-05-10T14:12:51.111Z,99948.50
2023-05-10T14:15:19.318Z,99948.50
2023-05-10T14:17:46.965Z,99942.09
2023-05-10T14:20:14.505Z,99939.44
2023-05-10T14:22:42.016Z,99944.66
2023-05-10T14:25:10.309Z,99948.91
2023-05-10T14:27:39.224Z,99946.44
2023-05-10T14:30:07.746Z,99946.47
2023-05-10T14:32:37.620Z,99946.81
2023-05-10T14:35:07.065Z,99941.84
2023-05-10T14:37:35.600Z,99943.44
2023-05-10T14:40:05.460Z,99944.88
2023-05-10T14:42:33.272Z,99936.25
2023-05-10T14:45:00.797Z,99943.44
2023-05-10T14:47:28.330Z,99938.94
2023-05-10T14:49:55.956Z,99944.09
2023-05-10T14:52:23.616Z,99934.19
2023-05-10T14:54:51.486Z,99935.06
2023-05-10T14:57:19.237Z,99935.66
2023-05-10T14:59:46.920Z,99941.81
2023-05-10T15:02:14.830Z,99933.38
2023-05-10T15:04:42.657Z,99936.19
2023-05-10T15:07:10.864Z,99937.47
2023-05-10T15:09:38.428Z,99940.22
2023-05-10T15:12:06.202Z,99935.13
2023-05-10T15:14:34.044Z,99940.94
2023-05-10T15:17:01.661Z,99932.91
2023-05-10T15:19:30.445Z,99937.84
2023-05-10T15:21:57.995Z,99927.97
2023-05-10T15:24:25.709Z,99931.28
2023-05-10T15:26:53.212Z,99932.81
2023-05-10T15:29:21.967Z,99922.69
2023-05-10T15:31:50.540Z,99933.00
2023-05-10T15:34:19.080Z,99928.38
2023-05-10T15:36:47.137Z,99924.41
2023-05-10T15:39:14.760Z,99917.16
2023-05-10T15:41:42.315Z,99918.00
2023-05-10T15:44:09.821Z,99920.41
2023-05-10T15:46:38.940Z,99928.16
2023-05-10T15:49:07.644Z,99928.50
2023-05-10T15:51:36.657Z,99930.50
2023-05-10T15:54:08.425Z,99926.81
2023-05-10T15:56:36.633Z,99936.00
2023-05-10T15:59:06.185Z,99932.94
2023-05-10T16:01:33.875Z,99929.94
2023-05-10T16:04:02.143Z,99932.94
2023-05-10T16:06:29.770Z,99921.47
2023-05-10T16:08:58.134Z,99922.56
2023-05-10T16:11:26.354Z,99919.59
2023-05-10T16:13:54.126Z,99921.44
2023-05-10T16:16:24.434Z,99920.94
2023-05-10T16:18:53.139Z,99925.44
2023-05-10T16:21:20.940Z,99923.34
2023-05-10T16:23:48.718Z,99924.63
2023-05-10T16:26:16.196Z,99920.84
2023-05-10T16:28:44.435Z,99927.84
2023-05-10T16:31:13.952Z,99926.25
2023-05-10T16:33:41.692Z,99923.28
2023-05-10T16:36:10.752Z,99924.06
2023-05-10T16:38:40.747Z,99922.19
2023-05-10T16:41:08.450Z,99927.38
2023-05-10T16:43:39.203Z,99929.63
2023-05-10T16:46:28.861Z,99926.38
2023-05-10T16:49:00.236Z,99929.28
2023-05-10T16:51:31.215Z,99931.16
2023-05-10T16:53:59.052Z,99940.63
2023-05-10T16:56:28.358Z,99932.34
2023-05-10T16:58:56.735Z,99935.47
2023-05-10T17:01:27.146Z,99934.38
2023-05-10T17:03:55.712Z,99936.50
2023-05-10T17:06:23.670Z,99940.25
2023-05-10T17:08:51.769Z,99939.81
2023-05-10T17:11:21.912Z,99937.81
2023-05-10T17:13:52.512Z,99944.44
2023-05-10T17:16:21.518Z,99951.81
2023-05-10T17:18:51.475Z,99944.66
2023-05-10T17:21:19.608Z,99948.88
2023-05-10T17:23:47.157Z,99945.88
2023-05-10T17:26:15.938Z,99943.66
2023-05-10T17:28:43.632Z,99941.47
2023-05-10T17:31:11.850Z,99948.75
2023-05-10T17:33:39.993Z,99953.16
2023-05-10T17:36:08.522Z,99950.16
2023-05-10T17:38:42.638Z,99953.56
2023-05-10T17:41:15.828Z,99959.41
2023-05-10T17:43:44.601Z,99966.50
2023-05-10T17:46:13.399Z,99952.38
2023-05-10T17:48:44.376Z,99962.09
2023-05-10T17:51:13.696Z,99951.72
2023-05-10T17:53:42.367Z,99959.66
2023-05-10T17:56:11.758Z,99959.41
2023-05-10T17:58:42.869Z,99965.78
2023-05-10T18:01:17.004Z,99960.75
2023-05-10T18:03:47.339Z,99973.72
2023-05-10T18:06:16.999Z,99977.94
2023-05-10T18:08:53.344Z,99979.03
2023-05-10T18:11:24.449Z,99984.31
2023-05-10T18:13:56.526Z,99989.38
2023-05-10T18:16:24.353Z,99995.31
2023-05-10T18:18:52.942Z,99999.00
2023-05-10T18:21:23.514Z,99999.66
2023-05-10T18:23:53.665Z,100006.28
2023-05-10T18:26:22.432Z,100006.72
2023-05-10T18:28:55.952Z,100007.84
2023-05-10T18:31:24.063Z,100023.56
2023-05-10T18:33:52.484Z,100026.84
2023-05-10T18:36:20.382Z,100027.06
2023-05-10T18:38:52.438Z,100029.84
2023-05-10T18:41:20.140Z,100030.03
2023-05-10T18:43:48.254Z,100027.47
2023-05-10T18:46:16.526Z,100028.25
2023-05-10T18:48:50.421Z,100025.41
2023-05-10T18:51:19.269Z,100034.81
2023-05-10T18:53:49.278Z,100034.31
2023-05-10T18:56:19.865Z,100038.81
2023-05-10T18:58:48.212Z,100040.19
2023-05-10T19:01:20.363Z,100040.91
2023-05-10T19:03:49.420Z,100038.38
2023-05-10T19:06:17.058Z,100043.13
2023-05-10T19:08:45.947Z,100048.16
2023-05-10T19:11:13.732Z,100046.81
2023-05-10T19:13:46.139Z,100043.56
2023-05-10T19:16:24.335Z,100046.81
2023-05-10T19:18:54.383Z,100039.97
2023-05-10T19:21:25.803Z,100037.78
2023-05-10T19:23:57.728Z,100036.34
2023-05-10T19:26:27.901Z,100040.16
2023-05-10T19:28:59.717Z,100038.66
2023-05-10T19:31:28.818Z,100031.44
2023-05-10T19:34:00.511Z,100038.09
2023-05-10T19:36:28.517Z,100035.50
2023-05-10T19:38:57.507Z,100033.47
2023-05-10T19:41:27.595Z,100042.00
2023-05-10T19:43:56.943Z,100044.81
2023-05-10T19:46:26.041Z,100033.75
2023-05-10T19:48:53.786Z,100038.09
2023-05-10T19:51:22.699Z,100038.09
2023-05-10T19:53:50.631Z,100041.84
2023-05-10T19:56:18.525Z,100041.69
2023-05-10T19:58:47.331Z,100042.28
2023-05-10T20:01:15.076Z,100032.97
2023-05-10T20:03:42.696Z,100038.91
2023-05-10T20:06:12.462Z,100040.59
2023-05-10T20:08:40.113Z,100036.78
2023-05-10T20:11:08.121Z,100042.91
2023-05-10T20:13:35.623Z,100041.38
2023-05-10T20:16:05.183Z,100035.66
2023-05-10T20:18:32.910Z,100033.84
2023-05-10T20:21:01.922Z,100049.47
2023-05-10T20:23:29.766Z,100039.41
2023-05-10T20:25:58.828Z,100038.34
2023-05-10T20:28:27.158Z,100042.41
2023-05-10T20:30:56.502Z,100043.50
2023-05-10T20:33:24.798Z,100052.38
2023-05-10T20:35:52.494Z,100054.66
2023-05-10T20:38:20.127Z,100060.91
2023-05-10T20:40:49.066Z,100066.78
2023-05-10T20:43:16.679Z,100066.63
2023-05-10T20:45:44.374Z,100070.06
2023-05-10T20:48:13.294Z,100068.19
2023-05-10T20:50:44.565Z,100067.88
2023-05-10T20:53:12.179Z,100071.13
2023-05-10T20:55:39.931Z,100079.03
2023-05-10T20:58:07.587Z,100074.22
2023-05-10T21:00:35.276Z,100071.56
2023-05-10T21:03:04.476Z,100073.59
2023-05-10T21:05:32.339Z,100077.47
2023-05-10T21:08:01.046Z,100077.16
2023-05-10T21:10:30.126Z,100074.66
2023-05-10T21:12:57.789Z,100072.66
2023-05-10T21:15:26.026Z,100071.47
2023-05-10T21:17:54.384Z,100076.53
2023-05-10T21:20:23.476Z,100083.66
2023-05-10T21:22:51.329Z,100078.25
2023-05-10T21:25:19.006Z,100071.56
2023-05-10T21:27:47.261Z,100086.28
2023-05-10T21:30:15.215Z,100077.16
2023-05-10T21:32:42.914Z,100079.59
2023-05-10T21:35:10.792Z,100080.38
2023-05-10T21:37:38.446Z,100071.84
2023-05-10T21:40:06.786Z,100070.16
2023-05-10T21:42:34.368Z,100062.72
2023-05-10T21:45:02.084Z,100056.06
2023-05-10T21:47:29.707Z,100061.97
2023-05-10T21:49:57.454Z,100047.69
2023-05-10T21:52:25.093Z,100053.72
2023-05-10T21:54:52.920Z,100050.94
2023-05-10T21:57:21.618Z,100052.19
2023-05-10T21:59:49.192Z,100051.84
2023-05-10T22:02:16.936Z,100049.50
2023-05-10T22:04:44.532Z,100043.91
2023-05-10T22:07:12.206Z,100042.19
2023-05-10T22:09:39.864Z,100045.56
2023-05-10T22:12:07.624Z,100050.00
2023-05-10T22:14:35.454Z,100058.69
2023-05-10T22:17:03.101Z,100059.34
2023-05-10T22:19:30.750Z,100056.09
2023-05-10T22:22:00.715Z,100054.72
2023-05-10T22:24:28.515Z,100055.50
2023-05-10T22:26:56.278Z,100053.31
2023-05-10T22:29:24.756Z,100052.84
2023-05-10T22:31:52.420Z,100052.25
2023-05-10T22:34:20.830Z,100052.06
2023-05-10T22:36:49.684Z,100047.13
2023-05-10T22:39:20.369Z,100044.50
2023-05-10T22:41:47.890Z,100043.91
2023-05-10T22:44:15.489Z,100045.09
2023-05-10T22:46:43.033Z,100052.25
2023-05-10T22:49:11.196Z,100048.84
2023-05-10T22:51:38.728Z,100045.22
2023-05-10T22:54:07.272Z,100049.69
2023-05-10T22:56:35.397Z,100053.69
2023-05-10T22:59:03.137Z,100049.47
2023-05-10T23:01:30.783Z,100054.66
2023-05-10T23:03:58.446Z,100052.78
2023-05-10T23:06:27.846Z,100051.78
2023-05-10T23:08:56.197Z,100049.75
2023-05-10T23:11:23.844Z,100043.84
2023-05-10T23:13:52.005Z,100051.03
2023-05-10T23:16:19.638Z,100049.09
2023-05-10T23:18:47.252Z,100042.53
2023-05-10T23:21:14.869Z,100046.91
2023-05-10T23:23:42.488Z,100041.88
2023-05-10T23:26:10.194Z,100045.31
2023-05-10T23:28:37.972Z,100044.63
2023-05-10T23:31:05.618Z,100035.56
2023-05-10T23:33:36.003Z,100050.94
2023-05-10T23:36:03.688Z,100040.94
2023-05-10T23:38:31.213Z,100040.84
2023-05-10T23:40:58.812Z,100040.66
2023-05-10T23:43:26.497Z,100041.19
2023-05-10T23:45:56.756Z,100038.72
2023-05-10T23:48:24.762Z,100044.31
2023-05-10T23:50:52.445Z,100042.19
2023-05-10T23:53:20.132Z,100048.84
2023-05-10T23:55:47.636Z,100050.09
2023-05-10T23:58:15.441Z,100047.81
